Time;durP1;ratioP1;P1;durP2;ratioP2;P2;SDS_P1;SDS_P2;PMS_P1;PMS_P2;Temp;Humidity;BMP_temperature;BMP_pressure;BME280_temperature;BME280_humidity;BME280_pressure;Samples;Min_cycle;Max_cycle;Signal;HPM_P1;HPM_P2
2021/12/19 00:00:09;;;;;;;7.03;4.15;;;8.10;1.00;;;;;;5114089;27;20238;-82
2021/12/19 00:02:47;;;;;;;9.38;4.70;;;8.10;1.00;;;;;;5106645;27;20841;-83
2021/12/19 00:10:43;;;;;;;9.88;4.20;;;8.10;1.00;;;;;;5118563;27;20251;-82
2021/12/19 00:13:12;;;;;;;7.53;4.03;;;8.10;1.00;;;;;;5111237;27;20227;-83
2021/12/19 00:15:39;;;;;;;8.45;3.92;;;8.10;1.00;;;;;;5107039;27;20223;-82
2021/12/19 00:18:06;;;;;;;9.00;4.57;;;8.10;1.00;;;;;;5087289;27;20338;-82
2021/12/19 00:20:33;;;;;;;9.52;4.43;;;8.10;1.00;;;;;;5089645;27;20234;-82
2021/12/19 00:23:00;;;;;;;6.43;4.38;;;8.20;1.00;;;;;;5102345;27;20304;-84
2021/12/19 00:25:27;;;;;;;7.18;4.47;;;8.20;1.00;;;;;;5105727;27;20724;-82
2021/12/19 00:27:53;;;;;;;9.82;4.38;;;8.20;1.00;;;;;;5104018;27;20225;-81
2021/12/19 00:30:22;;;;;;;8.68;4.78;;;8.20;1.00;;;;;;5099683;27;20222;-83
2021/12/19 00:32:49;;;;;;;8.77;4.00;;;8.20;1.00;;;;;;5104175;27;20321;-83
2021/12/19 00:35:16;;;;;;;7.95;3.83;;;8.20;1.00;;;;;;5105831;27;20320;-83
2021/12/19 00:37:46;;;;;;;10.00;4.07;;;8.10;1.00;;;;;;5106233;27;20308;-83
2021/12/19 00:40:13;;;;;;;7.65;4.25;;;8.10;1.00;;;;;;5110518;27;20267;-83
2021/12/19 00:42:40;;;;;;;6.25;4.63;;;8.10;1.00;;;;;;5104529;27;20217;-82
2021/12/19 00:45:16;;;;;;;7.47;3.65;;;8.10;1.00;;;;;;5127248;27;20246;-82
2021/12/19 00:47:45;;;;;;;9.05;3.33;;;8.10;1.00;;;;;;5117510;27;20247;-81
2021/12/19 00:50:13;;;;;;;6.85;3.53;;;8.10;1.00;;;;;;5126513;27;20219;-82
2021/12/19 00:52:40;;;;;;;9.50;4.25;;;8.10;1.00;;;;;;5130641;27;20204;-82
2021/12/19 00:55:08;;;;;;;9.18;3.70;;;8.10;1.00;;;;;;5110197;27;20237;-83
2021/12/19 00:57:35;;;;;;;8.18;3.80;;;8.10;1.00;;;;;;5108397;27;20216;-81
2021/12/19 01:00:01;;;;;;;6.50;4.00;;;8.10;1.00;;;;;;5107386;27;20380;-82
2021/12/19 01:02:28;;;;;;;7.97;4.18;;;8.10;1.00;;;;;;5108398;27;20422;-82
2021/12/19 01:04:56;;;;;;;9.80;4.70;;;8.10;1.00;;;;;;5107632;27;20227;-83
2021/12/19 01:07:24;;;;;;;10.10;4.03;;;8.10;1.00;;;;;;5103011;27;20830;-82
2021/12/19 01:09:51;;;;;;;5.35;4.30;;;8.10;1.00;;;;;;5105280;27;21169;-82
2021/12/19 01:12:18;;;;;;;6.55;4.95;;;8.10;1.00;;;;;;5105967;27;20298;-84
2021/12/19 01:14:45;;;;;;;7.32;5.07;;;8.10;1.00;;;;;;5101739;27;21335;-83
2021/12/19 01:17:12;;;;;;;8.77;4.93;;;8.10;1.00;;;;;;5104516;27;20225;-83
2021/12/19 01:19:39;;;;;;;11.13;5.00;;;8.10;1.00;;;;;;5097613;27;20222;-82
2021/12/19 01:22:07;;;;;;;7.28;5.22;;;8.10;1.00;;;;;;5104799;27;20276;-82
2021/12/19 01:24:33;;;;;;;8.18;4.95;;;8.00;1.00;;;;;;5088589;27;20234;-82
2021/12/19 01:27:00;;;;;;;8.20;5.25;;;8.00;1.00;;;;;;5104035;27;20811;-81
2021/12/19 01:29:27;;;;;;;10.80;5.13;;;8.00;1.00;;;;;;5098056;27;20232;-81
2021/12/19 01:31:53;;;;;;;7.93;5.88;;;8.00;1.00;;;;;;5104626;27;20227;-82
2021/12/19 01:34:20;;;;;;;8.38;5.15;;;7.90;1.00;;;;;;5105524;27;20225;-82
2021/12/19 01:36:47;;;;;;;9.07;5.38;;;7.90;1.00;;;;;;5101920;27;20742;-82
2021/12/19 01:39:15;;;;;;;6.47;5.70;;;7.90;1.00;;;;;;5103348;27;21126;-82
2021/12/19 01:41:48;;;;;;;6.50;5.90;;;8.00;1.00;;;;;;5100780;27;20227;-83
2021/12/19 01:44:15;;;;;;;7.72;6.47;;;7.90;1.00;;;;;;5104414;27;21202;-82
2021/12/19 01:46:44;;;;;;;10.55;6.50;;;8.00;1.00;;;;;;5111827;27;20342;-82
2021/12/19 01:49:11;;;;;;;9.70;6.80;;;7.90;1.00;;;;;;5110728;27;20698;-83
2021/12/19 01:51:39;;;;;;;9.43;7.45;;;7.90;1.00;;;;;;5106435;27;20801;-83
2021/12/19 01:54:07;;;;;;;9.15;6.75;;;7.90;1.00;;;;;;5108409;27;20245;-83
2021/12/19 01:56:35;;;;;;;7.75;7.05;;;8.00;1.00;;;;;;5104044;27;20230;-82
2021/12/19 01:59:02;;;;;;;8.70;7.82;;;8.00;1.00;;;;;;5108005;27;20267;-82
2021/12/19 02:01:28;;;;;;;8.40;7.35;;;8.00;1.00;;;;;;5106403;27;20228;-82
2021/12/19 02:03:55;;;;;;;9.57;8.65;;;8.00;1.00;;;;;;5103410;27;20247;-82
2021/12/19 02:06:22;;;;;;;10.40;7.95;;;8.00;1.00;;;;;;5101082;27;20239;-82
2021/12/19 02:08:53;;;;;;;8.05;7.00;;;8.00;1.00;;;;;;5101465;27;20380;-81
2021/12/19 02:11:20;;;;;;;8.68;6.80;;;8.00;1.00;;;;;;5087719;27;20227;-80
2021/12/19 02:13:48;;;;;;;8.80;8.00;;;8.00;1.00;;;;;;5087368;27;20367;-82
2021/12/19 02:16:14;;;;;;;7.82;6.90;;;8.00;1.00;;;;;;5104617;27;20258;-81
2021/12/19 02:18:41;;;;;;;11.02;6.80;;;8.00;1.00;;;;;;5103695;27;21371;-82
2021/12/19 02:21:09;;;;;;;6.80;6.20;;;8.00;1.00;;;;;;5101136;27;20223;-82
2021/12/19 02:23:36;;;;;;;9.35;6.53;;;8.00;1.00;;;;;;5103640;27;20212;-82
2021/12/19 02:26:03;;;;;;;7.60;4.85;;;8.00;1.00;;;;;;5102334;27;20314;-82
2021/12/19 02:28:30;;;;;;;9.40;5.20;;;8.00;1.00;;;;;;5105953;27;20657;-83
2021/12/19 02:30:57;;;;;;;7.32;4.60;;;7.90;1.00;;;;;;5104619;27;20224;-82
2021/12/19 02:33:26;;;;;;;5.28;4.28;;;7.90;1.00;;;;;;5110746;27;20305;-82
2021/12/19 02:36:01;;;;;;;5.30;4.80;;;8.00;1.00;;;;;;5105034;27;20244;-84
2021/12/19 02:49:32;;;;;;;8.32;3.83;;;7.90;1.00;;;;;;5120445;27;20754;-82
2021/12/19 02:52:00;;;;;;;3.97;3.08;;;7.90;1.00;;;;;;5095054;27;20290;-81
2021/12/19 02:54:28;;;;;;;5.25;3.47;;;7.90;1.00;;;;;;5104776;27;20250;-81
2021/12/19 02:56:56;;;;;;;5.72;4.68;;;7.90;1.00;;;;;;5099357;27;20311;-83
2021/12/19 02:59:23;;;;;;;3.97;2.63;;;7.90;1.00;;;;;;5099952;27;20358;-81
2021/12/19 03:01:50;;;;;;;8.43;3.45;;;7.90;1.00;;;;;;5087252;27;20223;-82
2021/12/19 03:04:17;;;;;;;5.20;2.90;;;7.90;1.00;;;;;;5103758;27;20279;-83
2021/12/19 03:06:46;;;;;;;3.97;2.87;;;7.90;1.00;;;;;;5113838;27;20282;-82
2021/12/19 03:09:17;;;;;;;5.35;2.70;;;7.90;1.00;;;;;;5112068;27;20465;-83
2021/12/19 03:19:53;;;;;;;6.75;2.70;;;7.90;1.00;;;;;;5099875;27;20235;-81
2021/12/19 03:22:20;;;;;;;6.07;3.03;;;7.90;1.00;;;;;;5130100;27;20230;-81
2021/12/19 03:24:48;;;;;;;6.60;3.63;;;7.90;1.00;;;;;;5133658;27;20212;-81
2021/12/19 03:27:16;;;;;;;5.00;2.78;;;7.90;1.00;;;;;;5131821;27;20216;-82
2021/12/19 03:29:42;;;;;;;4.80;3.13;;;7.90;1.00;;;;;;5124900;27;23573;-82
2021/12/19 03:32:09;;;;;;;4.55;2.70;;;7.90;1.00;;;;;;5128651;27;20212;-81
2021/12/19 03:34:36;;;;;;;4.93;2.65;;;7.90;1.00;;;;;;5111550;27;20736;-82
2021/12/19 03:37:03;;;;;;;4.90;2.50;;;7.90;1.00;;;;;;5122378;27;20208;-83
2021/12/19 03:39:38;;;;;;;4.97;2.67;;;7.90;1.00;;;;;;5114980;27;20222;-81
2021/12/19 03:42:06;;;;;;;5.65;3.00;;;8.00;1.00;;;;;;5108447;27;20740;-82
2021/12/19 03:44:34;;;;;;;2.95;2.33;;;8.00;1.00;;;;;;5090402;27;20228;-81
2021/12/19 03:47:01;;;;;;;4.90;2.50;;;8.00;1.00;;;;;;5096027;27;20275;-82
2021/12/19 03:49:28;;;;;;;3.90;2.30;;;8.00;1.00;;;;;;5098786;27;20232;-83
2021/12/19 03:51:54;;;;;;;3.15;2.67;;;8.00;1.00;;;;;;5102242;27;20378;-82
2021/12/19 03:54:21;;;;;;;5.25;2.38;;;8.00;1.00;;;;;;5103712;27;20302;-82
2021/12/19 03:56:48;;;;;;;4.28;2.10;;;8.00;1.00;;;;;;5082468;27;20250;-82
2021/12/19 03:59:15;;;;;;;5.85;2.50;;;8.00;1.00;;;;;;5103271;27;20215;-83
2021/12/19 04:01:47;;;;;;;6.30;2.85;;;7.90;1.00;;;;;;5114334;27;20208;-83
2021/12/19 04:04:18;;;;;;;4.00;2.55;;;7.90;1.00;;;;;;5131238;27;20219;-81
2021/12/19 04:06:45;;;;;;;4.68;2.58;;;7.90;1.00;;;;;;5113389;27;20296;-81
2021/12/19 04:09:12;;;;;;;3.35;2.42;;;8.00;1.00;;;;;;5127963;27;20234;-82
2021/12/19 04:11:39;;;;;;;7.05;3.35;;;7.90;1.00;;;;;;5104203;27;20239;-81
2021/12/19 04:14:06;;;;;;;4.43;3.30;;;7.90;1.00;;;;;;5098307;27;20227;-81
2021/12/19 04:16:33;;;;;;;7.25;3.08;;;7.90;1.00;;;;;;5085611;27;20228;-82
2021/12/19 04:19:01;;;;;;;5.97;3.63;;;7.90;1.00;;;;;;5093952;27;20397;-81
2021/12/19 04:21:28;;;;;;;4.25;3.58;;;7.90;1.00;;;;;;5097917;27;20349;-81
2021/12/19 04:23:55;;;;;;;6.85;3.30;;;7.90;1.00;;;;;;5099504;27;20322;-81
2021/12/19 04:26:21;;;;;;;5.60;3.90;;;7.90;1.00;;;;;;5099809;27;20223;-80
2021/12/19 04:28:48;;;;;;;6.45;3.50;;;8.00;1.00;;;;;;5104291;27;20311;-81
2021/12/19 04:31:14;;;;;;;5.95;3.47;;;8.00;1.00;;;;;;5099497;27;20216;-82
2021/12/19 04:33:42;;;;;;;4.35;3.47;;;8.00;1.00;;;;;;5099238;27;20217;-82
2021/12/19 04:36:16;;;;;;;6.85;4.05;;;8.00;1.00;;;;;;5108137;27;20212;-80
2021/12/19 04:39:19;;;;;;;5.20;3.35;;;7.90;1.00;;;;;;5129310;27;20232;-79
2021/12/19 04:42:17;;;;;;;6.40;3.58;;;7.90;1.00;;;;;;5119631;27;21659;-81
2021/12/19 04:53:22;;;;;;;5.65;4.30;;;7.90;1.00;;;;;;5102183;27;20845;-81
2021/12/19 04:59:13;;;;;;;7.40;3.85;;;7.90;1.00;;;;;;5104922;27;20299;-81
2021/12/19 05:02:11;;;;;;;5.75;3.90;;;7.80;1.00;;;;;;5108444;27;20225;-81
2021/12/19 05:05:05;;;;;;;6.00;4.30;;;7.90;1.00;;;;;;5101741;27;20765;-81
2021/12/19 05:15:46;;;;;;;9.52;4.47;;;7.80;1.00;;;;;;5118276;27;20219;-82
2021/12/19 05:18:14;;;;;;;4.90;4.10;;;7.80;1.00;;;;;;5131752;27;20257;-81
2021/12/19 05:20:51;;;;;;;8.55;4.20;;;7.80;1.00;;;;;;5138905;27;20215;-80
2021/12/19 05:23:24;;;;;;;5.72;4.15;;;7.80;1.00;;;;;;5138511;27;20231;-81
2021/12/19 05:25:52;;;;;;;6.70;4.00;;;7.80;1.00;;;;;;5142860;27;20211;-80
2021/12/19 05:28:18;;;;;;;5.38;3.80;;;7.70;1.00;;;;;;5135335;27;20279;-81
2021/12/19 05:30:45;;;;;;;7.63;4.85;;;7.80;1.00;;;;;;5128206;27;20307;-80
2021/12/19 05:33:12;;;;;;;8.95;4.35;;;7.70;1.00;;;;;;5114467;27;21211;-82
2021/12/19 05:36:00;;;;;;;5.53;3.92;;;7.70;1.00;;;;;;5114183;27;20223;-83
2021/12/19 05:45:11;;;;;;;7.18;3.95;;;7.70;1.00;;;;;;5142554;27;20233;-80
2021/12/19 05:46:59;;;;;;;6.40;3.65;;;7.70;1.00;;;;;;5142810;27;20281;-81
2021/12/19 05:49:27;;;;;;;5.97;3.83;;;7.70;1.00;;;;;;5136905;27;20262;-81
2021/12/19 05:51:55;;;;;;;7.47;3.35;;;7.70;1.00;;;;;;5136533;27;20231;-81
2021/12/19 05:54:21;;;;;;;4.28;3.15;;;7.70;1.00;;;;;;5140985;27;20216;-81
2021/12/19 05:56:51;;;;;;;5.40;3.00;;;7.70;1.00;;;;;;5137003;27;20276;-81
2021/12/19 05:59:18;;;;;;;8.23;3.80;;;7.70;1.00;;;;;;5136447;27;20215;-81
2021/12/19 06:01:46;;;;;;;6.68;4.47;;;7.60;1.00;;;;;;5136526;27;20280;-81
2021/12/19 06:04:14;;;;;;;5.15;3.20;;;7.60;1.00;;;;;;5126786;27;20214;-81
2021/12/19 06:06:40;;;;;;;4.57;3.15;;;7.60;1.00;;;;;;5119045;27;20784;-81
2021/12/19 06:09:07;;;;;;;6.65;3.05;;;7.60;1.00;;;;;;5105005;27;20239;-82
2021/12/19 06:11:34;;;;;;;7.32;3.15;;;7.60;1.00;;;;;;5102974;27;20338;-82
2021/12/19 06:14:02;;;;;;;5.00;3.70;;;7.60;1.00;;;;;;5102215;27;20226;-82
2021/12/19 06:16:29;;;;;;;7.63;3.20;;;7.70;1.00;;;;;;5105423;27;20234;-82
2021/12/19 06:18:55;;;;;;;9.30;6.20;;;7.70;1.00;;;;;;5097460;27;21480;-82
2021/12/19 06:21:22;;;;;;;6.43;3.05;;;7.70;1.00;;;;;;5101783;27;20228;-82
2021/12/19 06:23:49;;;;;;;4.65;3.00;;;7.70;1.00;;;;;;5106236;27;20242;-81
2021/12/19 06:26:15;;;;;;;6.07;2.63;;;7.70;1.00;;;;;;5104511;27;20231;-82
2021/12/19 06:28:42;;;;;;;5.80;3.05;;;7.60;1.00;;;;;;5102784;27;20728;-80
2021/12/19 06:31:10;;;;;;;6.30;3.25;;;7.60;1.00;;;;;;5100879;27;20399;-83
2021/12/19 06:33:37;;;;;;;5.72;3.33;;;7.60;1.00;;;;;;5107844;27;20219;-84
2021/12/19 06:36:05;;;;;;;5.53;3.20;;;7.60;1.00;;;;;;5108354;27;20227;-81
2021/12/19 06:38:32;;;;;;;3.65;2.80;;;7.60;1.00;;;;;;5114681;27;20227;-83
2021/12/19 06:40:58;;;;;;;7.25;3.08;;;7.60;1.00;;;;;;5115695;27;20933;-81
2021/12/19 06:43:26;;;;;;;5.72;3.08;;;7.60;1.00;;;;;;5136128;27;20271;-82
2021/12/19 06:45:55;;;;;;;4.70;2.72;;;7.60;1.00;;;;;;5129982;27;20291;-82
2021/12/19 06:48:24;;;;;;;5.63;2.92;;;7.60;1.00;;;;;;5123504;27;20215;-82
2021/12/19 06:50:52;;;;;;;5.80;2.50;;;7.60;1.00;;;;;;5120251;27;20239;-81
2021/12/19 06:53:19;;;;;;;5.38;2.63;;;7.60;1.00;;;;;;5122323;27;20267;-83
2021/12/19 06:55:46;;;;;;;6.47;3.30;;;7.50;1.00;;;;;;5119689;27;20673;-80
2021/12/19 06:58:13;;;;;;;8.63;3.45;;;7.50;1.00;;;;;;5114329;27;20221;-80
2021/12/19 07:00:40;;;;;;;5.80;3.03;;;7.50;1.00;;;;;;5114730;27;20274;-81
2021/12/19 07:03:06;;;;;;;9.00;2.88;;;7.50;1.00;;;;;;5122964;27;20229;-83
2021/12/19 07:05:35;;;;;;;4.78;3.03;;;7.50;1.00;;;;;;5116293;27;20227;-83
2021/12/19 07:08:01;;;;;;;2.83;2.15;;;7.50;1.00;;;;;;5120149;27;20832;-82
2021/12/19 07:10:28;;;;;;;5.47;1.90;;;7.50;1.00;;;;;;5101101;27;20247;-83
2021/12/19 07:12:54;;;;;;;2.72;1.60;;;7.50;1.00;;;;;;5120856;27;20226;-82
2021/12/19 07:15:24;;;;;;;3.05;1.65;;;7.50;1.00;;;;;;5104856;27;20258;-82
2021/12/19 07:17:51;;;;;;;4.28;2.15;;;7.60;1.00;;;;;;5113733;27;20220;-82
2021/12/19 07:20:18;;;;;;;5.15;2.40;;;7.50;1.00;;;;;;5104289;27;20785;-82
2021/12/19 07:22:46;;;;;;;2.70;1.70;;;7.50;1.00;;;;;;5109104;27;20287;-82
2021/12/19 07:25:12;;;;;;;6.53;1.88;;;7.40;1.00;;;;;;5113925;27;20287;-83
2021/12/19 07:27:39;;;;;;;2.80;1.58;;;7.40;1.00;;;;;;5115136;27;20222;-82
2021/12/19 07:30:07;;;;;;;7.38;2.90;;;7.40;1.00;;;;;;5106782;27;20232;-82
2021/12/19 07:32:36;;;;;;;2.45;1.70;;;7.40;1.00;;;;;;5104950;27;20231;-82
2021/12/19 07:35:03;;;;;;;4.65;1.48;;;7.40;1.00;;;;;;5108082;27;20258;-83
2021/12/19 07:37:30;;;;;;;4.75;1.73;;;7.40;1.00;;;;;;5103495;27;20341;-83
2021/12/19 07:40:09;;;;;;;3.60;1.80;;;7.50;1.00;;;;;;5105176;27;20232;-83
2021/12/19 07:42:36;;;;;;;4.20;2.45;;;7.50;1.00;;;;;;5117056;27;20286;-83
2021/12/19 07:45:04;;;;;;;5.63;2.22;;;7.50;1.00;;;;;;5134203;27;20222;-83
2021/12/19 07:47:31;;;;;;;5.88;2.97;;;7.50;1.00;;;;;;5111378;27;20407;-83
2021/12/19 07:49:57;;;;;;;6.18;2.72;;;7.50;1.00;;;;;;5104486;27;20361;-83
2021/12/19 07:52:24;;;;;;;4.57;2.53;;;7.50;1.00;;;;;;5100844;27;20233;-82
2021/12/19 07:54:51;;;;;;;5.40;2.78;;;7.50;1.00;;;;;;5103466;27;20481;-83
2021/12/19 07:57:18;;;;;;;4.95;2.25;;;7.40;1.00;;;;;;5104372;27;20223;-81
2021/12/19 07:59:45;;;;;;;3.00;2.13;;;7.40;1.00;;;;;;5106652;27;20228;-82
2021/12/19 08:02:13;;;;;;;5.72;2.33;;;7.40;1.00;;;;;;5110269;27;20683;-83
2021/12/19 08:04:40;;;;;;;4.28;2.35;;;7.30;1.00;;;;;;5110202;27;20946;-81
2021/12/19 08:07:08;;;;;;;2.78;1.88;;;7.30;1.00;;;;;;5090400;27;20228;-83
2021/12/19 08:09:40;;;;;;;5.32;1.65;;;7.30;1.00;;;;;;5112947;27;20306;-82
2021/12/19 08:12:07;;;;;;;5.10;2.10;;;7.30;1.00;;;;;;5116677;27;20246;-83
2021/12/19 08:14:35;;;;;;;2.28;1.33;;;7.30;1.00;;;;;;5115216;27;20243;-84
2021/12/19 08:17:02;;;;;;;2.33;1.40;;;7.20;1.00;;;;;;5115396;27;20828;-82
2021/12/19 08:19:29;;;;;;;2.65;1.60;;;7.20;1.00;;;;;;5117259;27;20738;-83
2021/12/19 08:21:55;;;;;;;2.30;1.40;;;7.10;1.00;;;;;;5107203;27;20321;-83
2021/12/19 08:24:22;;;;;;;2.50;1.05;;;7.10;1.00;;;;;;5109206;27;20274;-84
2021/12/19 08:26:49;;;;;;;2.75;1.25;;;7.10;1.00;;;;;;5108871;27;20232;-84
2021/12/19 08:29:16;;;;;;;6.95;4.57;;;7.10;1.00;;;;;;5099484;27;20257;-84
2021/12/19 08:31:44;;;;;;;2.65;1.20;;;7.00;1.00;;;;;;5111395;27;20221;-83
2021/12/19 08:34:10;;;;;;;2.42;1.20;;;7.00;1.00;;;;;;5082970;27;20319;-84
2021/12/19 08:36:37;;;;;;;2.60;1.35;;;7.00;1.00;;;;;;5107086;27;20223;-82
2021/12/19 08:39:05;;;;;;;3.05;1.90;;;7.10;1.00;;;;;;5104293;27;20404;-83
2021/12/19 08:41:32;;;;;;;9.38;5.63;;;7.10;1.00;;;;;;5093775;27;20291;-83
2021/12/19 08:43:59;;;;;;;2.90;1.80;;;7.10;1.00;;;;;;5110861;27;20226;-84
2021/12/19 08:46:26;;;;;;;3.22;1.70;;;7.10;1.00;;;;;;5113778;27;20224;-82
2021/12/19 08:48:54;;;;;;;4.03;2.10;;;7.10;1.00;;;;;;5113732;27;20211;-83
2021/12/19 08:51:21;;;;;;;2.90;1.33;;;7.10;1.00;;;;;;5114857;27;20313;-82
2021/12/19 08:53:47;;;;;;;3.90;1.38;;;7.10;1.00;;;;;;5108986;27;20247;-83
2021/12/19 08:56:14;;;;;;;2.90;1.58;;;7.10;1.00;;;;;;5109893;27;20224;-83
2021/12/19 08:58:41;;;;;;;3.53;1.88;;;7.10;1.00;;;;;;5088252;27;20315;-83
2021/12/19 09:01:07;;;;;;;3.22;1.92;;;7.10;1.00;;;;;;5090482;27;20241;-82
2021/12/19 09:03:34;;;;;;;2.65;1.65;;;7.10;1.00;;;;;;5109142;27;20227;-86
2021/12/19 09:06:03;;;;;;;2.50;1.48;;;7.00;1.00;;;;;;5117149;27;20255;-86
2021/12/19 09:08:31;;;;;;;2.63;1.48;;;7.00;1.00;;;;;;5120650;27;20224;-86
2021/12/19 09:10:58;;;;;;;4.35;1.80;;;7.00;1.00;;;;;;5097250;27;20264;-81
2021/12/19 09:13:25;;;;;;;5.13;1.30;;;7.00;1.00;;;;;;5093755;27;20292;-83
2021/12/19 09:15:52;;;;;;;4.70;1.85;;;6.90;1.00;;;;;;5090910;27;20231;-81
2021/12/19 09:18:20;;;;;;;4.00;1.67;;;7.00;1.00;;;;;;5097961;27;20720;-84
2021/12/19 09:20:50;;;;;;;3.25;1.70;;;6.90;1.00;;;;;;5104543;27;20355;-84
2021/12/19 09:23:19;;;;;;;4.13;2.05;;;6.90;1.00;;;;;;5088531;27;20478;-85
2021/12/19 09:25:46;;;;;;;3.70;2.03;;;6.90;1.00;;;;;;5087810;27;21157;-83
2021/12/19 09:28:14;;;;;;;5.30;3.50;;;7.00;1.00;;;;;;5110367;27;20223;-85
2021/12/19 09:30:41;;;;;;;9.90;5.40;;;7.00;1.00;;;;;;5107443;27;20304;-82
2021/12/19 09:33:08;;;;;;;2.95;2.30;;;7.00;1.00;;;;;;5105996;27;21517;-84
2021/12/19 09:35:35;;;;;;;6.82;2.80;;;7.00;1.00;;;;;;5088705;27;20439;-82
2021/12/19 09:38:04;;;;;;;3.70;2.30;;;6.90;1.00;;;;;;5104530;27;20227;-83
2021/12/19 09:40:37;;;;;;;2.67;1.50;;;6.90;1.00;;;;;;5104596;27;20216;-86
2021/12/19 09:43:21;;;;;;;4.00;1.60;;;6.80;1.00;;;;;;5088265;27;20249;-83
2021/12/19 09:45:54;;;;;;;4.28;1.75;;;6.80;1.00;;;;;;5118986;27;20313;-82
2021/12/19 09:48:30;;;;;;;4.97;1.88;;;6.80;1.00;;;;;;5123970;27;20225;-81
2021/12/19 09:50:56;;;;;;;3.55;1.83;;;6.80;1.00;;;;;;5117066;27;20239;-83
2021/12/19 09:53:23;;;;;;;4.03;2.25;;;6.90;1.00;;;;;;5104059;27;20227;-85
2021/12/19 09:55:52;;;;;;;4.35;2.30;;;6.80;1.00;;;;;;5096364;27;20222;-84
2021/12/19 09:58:18;;;;;;;4.05;1.70;;;6.90;1.00;;;;;;5095759;27;20250;-82
2021/12/19 10:00:46;;;;;;;5.65;2.03;;;6.90;1.00;;;;;;5115024;27;20235;-81
2021/12/19 10:03:16;;;;;;;5.05;2.20;;;6.90;1.00;;;;;;5095322;27;20233;-82
2021/12/19 10:05:43;;;;;;;3.97;1.95;;;6.90;1.00;;;;;;5091036;27;20327;-83
2021/12/19 10:08:10;;;;;;;5.95;1.90;;;6.90;1.00;;;;;;5108811;27;20278;-80
2021/12/19 10:10:44;;;;;;;4.32;2.25;;;6.90;1.00;;;;;;5118066;27;20292;-80
2021/12/19 10:13:13;;;;;;;4.00;1.92;;;6.90;1.00;;;;;;5096785;27;20231;-80
2021/12/19 10:15:42;;;;;;;5.50;2.58;;;6.90;1.00;;;;;;5110985;27;20261;-82
2021/12/19 10:18:12;;;;;;;2.83;1.58;;;6.90;1.00;;;;;;5098537;27;20262;-80
2021/12/19 10:20:49;;;;;;;3.60;2.20;;;6.90;1.00;;;;;;5097186;27;20346;-82
2021/12/19 10:23:18;;;;;;;4.30;1.88;;;7.00;1.00;;;;;;5112128;27;20295;-81
2021/12/19 10:25:56;;;;;;;4.10;2.35;;;7.00;1.00;;;;;;5125896;27;20228;-81
2021/12/19 10:28:25;;;;;;;6.28;1.50;;;7.00;1.00;;;;;;5105909;27;21477;-81
2021/12/19 10:30:52;;;;;;;4.22;1.95;;;7.00;1.00;;;;;;5114109;27;20227;-83
2021/12/19 10:33:22;;;;;;;5.25;2.38;;;6.90;1.00;;;;;;5116272;27;20230;-84
2021/12/19 10:35:51;;;;;;;4.20;2.08;;;6.90;1.00;;;;;;5115092;27;20207;-86
2021/12/19 10:38:20;;;;;;;2.65;1.65;;;6.90;1.00;;;;;;5112905;27;20269;-82
2021/12/19 10:40:49;;;;;;;5.78;2.42;;;6.90;1.00;;;;;;5114056;27;20227;-83
2021/12/19 10:43:17;;;;;;;3.08;2.33;;;6.90;1.00;;;;;;5112042;27;20988;-84
2021/12/19 10:45:48;;;;;;;3.60;2.05;;;7.00;1.00;;;;;;5115408;27;20356;-82
2021/12/19 10:48:21;;;;;;;2.85;2.10;;;7.00;1.00;;;;;;5098715;27;20195;-81
2021/12/19 10:50:50;;;;;;;6.72;2.53;;;7.10;1.00;;;;;;5119578;27;20296;-83
2021/12/19 10:53:19;;;;;;;6.38;1.63;;;7.20;1.00;;;;;;5075122;27;20292;-82
2021/12/19 10:55:47;;;;;;;3.13;1.90;;;7.10;1.00;;;;;;5088612;27;20224;-83
2021/12/19 10:58:28;;;;;;;4.90;2.53;;;7.10;1.00;;;;;;5073372;28;20836;-81
2021/12/19 11:01:04;;;;;;;3.47;1.67;;;7.10;1.00;;;;;;5084071;27;20227;-80
2021/12/19 11:03:37;;;;;;;5.70;2.10;;;7.10;1.00;;;;;;5084785;27;20333;-79
2021/12/19 11:06:18;;;;;;;7.57;2.97;;;7.10;1.00;;;;;;5075496;27;20994;-81
2021/12/19 11:08:46;;;;;;;4.00;2.00;;;7.10;1.00;;;;;;5070690;27;20238;-79
2021/12/19 11:11:28;;;;;;;3.58;1.65;;;7.10;1.00;;;;;;5088379;27;20310;-79
2021/12/19 11:13:55;;;;;;;3.13;1.80;;;7.10;1.00;;;;;;5085494;27;20947;-79
2021/12/19 11:16:24;;;;;;;4.68;2.10;;;7.10;1.00;;;;;;5084440;27;20291;-81
2021/12/19 11:18:51;;;;;;;4.72;2.95;;;7.10;1.00;;;;;;5069611;27;20244;-80
2021/12/19 11:21:18;;;;;;;4.07;1.63;;;7.20;1.00;;;;;;5092120;27;20231;-79
2021/12/19 11:23:45;;;;;;;4.10;2.33;;;7.20;1.00;;;;;;5101848;27;20794;-81
2021/12/19 11:26:12;;;;;;;5.78;2.95;;;7.20;1.00;;;;;;5085598;27;20235;-81
2021/12/19 11:28:39;;;;;;;7.90;2.65;;;7.20;1.00;;;;;;5090574;27;20237;-78
2021/12/19 11:31:06;;;;;;;4.25;2.00;;;7.20;1.00;;;;;;5100813;27;20288;-78
2021/12/19 11:33:49;;;;;;;3.67;2.05;;;7.30;1.00;;;;;;5105939;27;20251;-79
2021/12/19 11:36:17;;;;;;;5.82;1.65;;;7.30;1.00;;;;;;5100461;27;20348;-78
2021/12/19 11:38:45;;;;;;;4.88;2.90;;;7.30;1.00;;;;;;5106244;27;20211;-77
2021/12/19 11:41:13;;;;;;;2.78;2.10;;;7.40;1.00;;;;;;5104689;27;20237;-76
2021/12/19 11:43:42;;;;;;;4.53;2.08;;;7.40;1.00;;;;;;5105020;27;20260;-78
2021/12/19 11:46:16;;;;;;;6.18;2.60;;;7.40;1.00;;;;;;5104175;27;20227;-80
2021/12/19 11:48:45;;;;;;;5.10;2.20;;;7.40;1.00;;;;;;5107606;27;20273;-78
2021/12/19 11:51:18;;;;;;;3.92;2.30;;;7.40;1.00;;;;;;5104127;27;20358;-79
2021/12/19 11:53:46;;;;;;;4.80;1.90;;;7.40;1.00;;;;;;5106747;27;20258;-79
2021/12/19 11:56:16;;;;;;;4.32;1.92;;;7.30;1.00;;;;;;5090517;27;21105;-81
2021/12/19 11:58:45;;;;;;;6.18;2.65;;;7.30;1.00;;;;;;5085604;27;20322;-79
2021/12/19 12:01:22;;;;;;;4.60;2.08;;;7.30;1.00;;;;;;5082850;27;20224;-78
2021/12/19 12:03:52;;;;;;;3.50;1.90;;;7.20;1.00;;;;;;5089610;27;20300;-78
2021/12/19 12:06:32;;;;;;;9.23;2.00;;;7.20;1.00;;;;;;5083444;27;20230;-80
2021/12/19 12:09:25;;;;;;;4.03;1.85;;;7.20;1.00;;;;;;5086812;27;20341;-80
2021/12/19 12:12:16;;;;;;;3.95;2.50;;;7.20;1.00;;;;;;5082226;27;20322;-78
2021/12/19 12:14:53;;;;;;;3.45;1.77;;;7.20;1.00;;;;;;5086305;27;20244;-79
2021/12/19 12:17:27;;;;;;;6.20;1.92;;;7.20;1.00;;;;;;5096613;27;20215;-80
2021/12/19 12:20:01;;;;;;;4.90;1.88;;;7.20;1.00;;;;;;5088280;27;20235;-79
2021/12/19 12:22:34;;;;;;;5.50;2.30;;;7.20;1.00;;;;;;5091312;27;20281;-80
2021/12/19 12:25:07;;;;;;;7.57;2.30;;;7.20;1.00;;;;;;5100294;27;20288;-80
2021/12/19 12:27:39;;;;;;;8.57;2.35;;;7.20;1.00;;;;;;5079970;28;20227;-82
2021/12/19 12:30:09;;;;;;;5.00;2.40;;;7.20;1.00;;;;;;5092303;27;20792;-80
2021/12/19 12:32:36;;;;;;;3.80;2.20;;;7.20;1.00;;;;;;5091670;27;21126;-80
2021/12/19 12:35:05;;;;;;;4.35;2.10;;;7.20;1.00;;;;;;5085682;27;20455;-79
2021/12/19 12:37:33;;;;;;;5.40;3.33;;;7.20;1.00;;;;;;5081017;27;20255;-81
2021/12/19 12:40:17;;;;;;;5.20;2.13;;;7.20;1.00;;;;;;5084742;27;20884;-80
2021/12/19 12:43:02;;;;;;;6.75;2.25;;;7.20;1.00;;;;;;5112940;27;20220;-79
2021/12/19 12:45:31;;;;;;;4.65;1.50;;;7.20;1.00;;;;;;5114035;27;20251;-80
2021/12/19 12:47:58;;;;;;;3.80;2.17;;;7.20;1.00;;;;;;5105958;27;20318;-80
2021/12/19 12:50:27;;;;;;;5.00;2.55;;;7.20;1.00;;;;;;5102174;27;20211;-80
2021/12/19 12:52:58;;;;;;;3.95;1.70;;;7.20;1.00;;;;;;5095219;27;20219;-81
2021/12/19 12:55:24;;;;;;;4.07;2.78;;;7.30;1.00;;;;;;5091979;27;20251;-80
2021/12/19 12:57:51;;;;;;;3.58;1.60;;;7.30;1.00;;;;;;5107393;27;20239;-80
2021/12/19 13:00:20;;;;;;;5.10;1.95;;;7.20;1.00;;;;;;5107508;27;20213;-79
2021/12/19 13:02:55;;;;;;;4.85;1.98;;;7.30;1.00;;;;;;5099209;27;20215;-80
2021/12/19 13:05:22;;;;;;;3.75;1.70;;;7.20;1.00;;;;;;5102913;27;20935;-79
2021/12/19 13:07:50;;;;;;;4.47;2.45;;;7.20;1.00;;;;;;5104243;27;20228;-82
2021/12/19 13:10:20;;;;;;;6.20;4.32;;;7.20;1.00;;;;;;5101334;27;20922;-81
2021/12/19 13:12:47;;;;;;;3.92;1.80;;;7.20;1.00;;;;;;5105079;27;20264;-82
2021/12/19 13:15:16;;;;;;;4.20;2.20;;;7.20;1.00;;;;;;5095654;27;20438;-82
2021/12/19 13:17:45;;;;;;;4.90;1.92;;;7.20;1.00;;;;;;5069038;27;20245;-82
2021/12/19 13:20:15;;;;;;;3.13;1.60;;;7.20;1.00;;;;;;5082386;27;20346;-81
2021/12/19 13:22:46;;;;;;;4.05;2.13;;;7.20;1.00;;;;;;5086571;27;20225;-82
2021/12/19 13:25:18;;;;;;;4.07;1.70;;;7.20;1.00;;;;;;5084102;27;20216;-81
2021/12/19 13:27:46;;;;;;;3.03;1.80;;;7.20;1.00;;;;;;5082413;27;20216;-81
2021/12/19 13:30:20;;;;;;;3.85;2.03;;;7.20;1.00;;;;;;5080695;27;20786;-80
2021/12/19 13:32:51;;;;;;;3.85;1.95;;;7.20;1.00;;;;;;5081685;27;20678;-79
2021/12/19 13:35:25;;;;;;;3.88;1.80;;;7.20;1.00;;;;;;5086951;27;20220;-79
2021/12/19 13:37:56;;;;;;;5.80;2.08;;;7.20;1.00;;;;;;5082801;27;20338;-80
2021/12/19 13:40:25;;;;;;;3.45;2.17;;;7.20;1.00;;;;;;5089703;27;20228;-80
2021/12/19 13:42:55;;;;;;;4.22;1.80;;;7.20;1.00;;;;;;5083779;27;20306;-80
2021/12/19 13:45:43;;;;;;;4.82;2.97;;;7.20;1.00;;;;;;5092063;27;20335;-78
2021/12/19 13:48:14;;;;;;;3.80;2.00;;;7.20;1.00;;;;;;5086524;27;20737;-79
2021/12/19 13:50:44;;;;;;;2.70;1.60;;;7.20;1.00;;;;;;5086709;27;20280;-79
2021/12/19 13:53:14;;;;;;;4.70;1.80;;;7.20;1.00;;;;;;5086814;27;20221;-80
2021/12/19 13:55:51;;;;;;;3.50;1.92;;;7.30;1.00;;;;;;5086719;27;20851;-83
2021/12/19 13:58:20;;;;;;;6.78;2.00;;;7.20;1.00;;;;;;5110372;27;20306;-84
2021/12/19 14:00:52;;;;;;;3.45;1.88;;;7.30;1.00;;;;;;5116804;27;20255;-88
2021/12/19 14:03:38;;;;;;;3.95;2.47;;;7.30;1.00;;;;;;5128425;27;20220;-86
2021/12/19 14:06:06;;;;;;;3.55;1.75;;;7.30;1.00;;;;;;5132219;27;20219;-87
2021/12/19 14:08:37;;;;;;;5.80;2.30;;;7.30;1.00;;;;;;5113567;27;20283;-85